Time;durP1;ratioP1;P1;durP2;ratioP2;P2;SDS_P1;SDS_P2;PMS_P1;PMS_P2;Temp;Humidity;BMP_temperature;BMP_pressure;BME280_temperature;BME280_humidity;BME280_pressure;Samples;Min_cycle;Max_cycle;Signal;HPM_P1;HPM_P2
2021/07/29 00:00:17;;;;;;;1.15;0.60;;;;;;;;;;5033633;28;20041;-59
2021/07/29 00:02:42;;;;;;;1.10;0.50;;;;;;;;;;5034147;28;20053;-60
2021/07/29 00:05:08;;;;;;;0.63;0.25;;;;;;;;;;5033793;28;20025;-60
2021/07/29 00:07:33;;;;;;;1.50;0.65;;;;;;;;;;5033936;28;20021;-60
2021/07/29 00:09:58;;;;;;;0.80;0.80;;;;;;;;;;5033964;28;20013;-60
2021/07/29 00:12:23;;;;;;;1.05;0.40;;;;;;;;;;5033906;28;20021;-60
2021/07/29 00:14:50;;;;;;;1.00;0.40;;;;;;;;;;5033734;28;20026;-60
2021/07/29 00:17:30;;;;;;;0.73;0.50;;;;;;;;;;5033640;28;20027;-60
2021/07/29 00:19:55;;;;;;;0.95;0.40;;;;;;;;;;5033566;28;20108;-60
2021/07/29 00:22:20;;;;;;;0.80;0.40;;;;;;;;;;5033595;28;20101;-60
2021/07/29 00:24:45;;;;;;;1.42;0.95;;;;;;;;;;5033430;28;20379;-60
2021/07/29 00:27:10;;;;;;;1.48;0.50;;;;;;;;;;5033569;28;20041;-60
2021/07/29 00:29:36;;;;;;;1.97;0.57;;;;;;;;;;5033124;28;20033;-61
2021/07/29 00:32:03;;;;;;;0.65;0.35;;;;;;;;;;5033611;28;20261;-60
2021/07/29 00:34:28;;;;;;;1.35;0.52;;;;;;;;;;5033366;28;20510;-60
2021/07/29 00:36:54;;;;;;;1.25;0.40;;;;;;;;;;5033414;28;20025;-60
2021/07/29 00:39:19;;;;;;;0.60;0.50;;;;;;;;;;5033274;28;20080;-60
2021/07/29 00:41:47;;;;;;;0.82;0.20;;;;;;;;;;5033324;28;20026;-59
2021/07/29 00:44:12;;;;;;;2.97;1.02;;;;;;;;;;5033465;28;20027;-60
2021/07/29 00:46:37;;;;;;;1.27;0.40;;;;;;;;;;5033135;28;20101;-60
2021/07/29 00:49:03;;;;;;;0.82;0.40;;;;;;;;;;5033074;28;20026;-60
2021/07/29 00:51:29;;;;;;;1.10;0.63;;;;;;;;;;5032942;28;20411;-60
2021/07/29 00:53:55;;;;;;;1.00;0.45;;;;;;;;;;5033346;28;20013;-60
2021/07/29 00:56:20;;;;;;;1.13;0.57;;;;;;;;;;5032857;28;20017;-60
2021/07/29 00:58:45;;;;;;;0.73;0.35;;;;;;;;;;5032936;28;20151;-60
2021/07/29 01:01:11;;;;;;;1.30;0.60;;;;;;;;;;5032670;28;20059;-60
2021/07/29 01:03:36;;;;;;;1.77;0.82;;;;;;;;;;5033147;28;20029;-60
2021/07/29 01:06:01;;;;;;;0.88;0.30;;;;;;;;;;5032845;28;20024;-60
2021/07/29 01:08:26;;;;;;;0.55;0.40;;;;;;;;;;5032923;28;20104;-60
2021/07/29 01:10:51;;;;;;;0.55;0.40;;;;;;;;;;5033055;28;20087;-60
2021/07/29 01:13:17;;;;;;;1.20;0.60;;;;;;;;;;5032822;28;20033;-60
2021/07/29 01:15:43;;;;;;;1.40;0.60;;;;;;;;;;5033051;28;20033;-60
2021/07/29 01:18:08;;;;;;;0.52;0.47;;;;;;;;;;5032759;28;20025;-60
2021/07/29 01:20:33;;;;;;;0.73;0.47;;;;;;;;;;5032922;28;20026;-61
2021/07/29 01:22:59;;;;;;;1.83;0.40;;;;;;;;;;5032897;28;20022;-60
2021/07/29 01:25:24;;;;;;;0.63;0.50;;;;;;;;;;5032494;28;20112;-60
2021/07/29 01:27:49;;;;;;;1.02;0.50;;;;;;;;;;5032758;28;20706;-60
2021/07/29 01:30:14;;;;;;;2.47;0.60;;;;;;;;;;5032517;28;20060;-60
2021/07/29 01:32:40;;;;;;;1.13;0.50;;;;;;;;;;5032827;28;20717;-60
2021/07/29 01:35:08;;;;;;;2.13;0.55;;;;;;;;;;5032624;28;20469;-60
2021/07/29 01:37:33;;;;;;;2.10;0.60;;;;;;;;;;5032697;28;20029;-61
2021/07/29 01:39:59;;;;;;;2.28;0.50;;;;;;;;;;5031647;28;20021;-60
2021/07/29 01:42:24;;;;;;;1.87;0.47;;;;;;;;;;5033541;28;20021;-60
2021/07/29 01:44:49;;;;;;;1.13;0.43;;;;;;;;;;5036553;28;20633;-60
2021/07/29 01:47:14;;;;;;;2.67;0.70;;;;;;;;;;5036401;28;20017;-60
2021/07/29 01:49:40;;;;;;;0.90;0.52;;;;;;;;;;5036390;28;20426;-60
2021/07/29 01:52:05;;;;;;;1.77;0.70;;;;;;;;;;5036384;28;20075;-60
2021/07/29 01:54:30;;;;;;;0.70;0.55;;;;;;;;;;5036352;28;20013;-60
2021/07/29 01:56:55;;;;;;;1.52;0.70;;;;;;;;;;5036197;28;20045;-61
2021/07/29 01:59:20;;;;;;;0.30;0.30;;;;;;;;;;5034617;28;20069;-60
2021/07/29 02:01:46;;;;;;;0.95;0.57;;;;;;;;;;5036113;28;20026;-60
2021/07/29 02:04:11;;;;;;;0.43;0.30;;;;;;;;;;5036073;28;20076;-60
2021/07/29 02:06:40;;;;;;;2.03;0.70;;;;;;;;;;5036191;28;20109;-60
2021/07/29 02:09:05;;;;;;;1.15;0.70;;;;;;;;;;5036215;28;20251;-60
2021/07/29 02:11:32;;;;;;;1.63;0.40;;;;;;;;;;5036029;28;20025;-61
2021/07/29 02:13:58;;;;;;;1.55;0.60;;;;;;;;;;5036039;28;20471;-60
2021/07/29 02:16:25;;;;;;;2.17;0.80;;;;;;;;;;5035928;28;20372;-60
2021/07/29 02:18:51;;;;;;;0.85;0.52;;;;;;;;;;5035932;28;20405;-60
2021/07/29 02:21:16;;;;;;;0.65;0.35;;;;;;;;;;5035757;28;20104;-60
2021/07/29 02:23:45;;;;;;;2.80;0.70;;;;;;;;;;5035809;28;20425;-60
2021/07/29 02:26:10;;;;;;;2.78;0.75;;;;;;;;;;5035593;28;20022;-60
2021/07/29 02:28:35;;;;;;;1.37;0.50;;;;;;;;;;5035751;28;20022;-60
2021/07/29 02:31:01;;;;;;;0.80;0.45;;;;;;;;;;5035669;28;20298;-60
2021/07/29 02:33:26;;;;;;;2.80;0.60;;;;;;;;;;5035460;28;20069;-61
2021/07/29 02:35:51;;;;;;;1.08;0.57;;;;;;;;;;5035784;28;20099;-60
2021/07/29 02:38:16;;;;;;;2.20;0.70;;;;;;;;;;5035347;28;20032;-61
2021/07/29 02:40:42;;;;;;;1.20;0.50;;;;;;;;;;5035536;28;20017;-60
2021/07/29 02:43:07;;;;;;;0.93;0.28;;;;;;;;;;5035411;28;20021;-61
2021/07/29 02:45:32;;;;;;;1.75;0.68;;;;;;;;;;5034189;28;20013;-60
2021/07/29 02:47:58;;;;;;;1.48;0.65;;;;;;;;;;5035390;28;20036;-60
2021/07/29 02:50:23;;;;;;;0.30;0.30;;;;;;;;;;5035274;28;20029;-60
2021/07/29 02:52:48;;;;;;;2.20;0.50;;;;;;;;;;5034875;28;20380;-60
2021/07/29 02:55:13;;;;;;;1.90;0.85;;;;;;;;;;5035005;28;20350;-60
2021/07/29 02:57:38;;;;;;;1.20;0.40;;;;;;;;;;5035090;28;20465;-60
2021/07/29 03:00:04;;;;;;;1.60;0.68;;;;;;;;;;5034640;28;20042;-61
2021/07/29 03:02:29;;;;;;;0.90;0.38;;;;;;;;;;5033985;28;20026;-60
2021/07/29 03:04:54;;;;;;;1.70;0.60;;;;;;;;;;5035065;28;20098;-61
2021/07/29 03:07:20;;;;;;;0.77;0.60;;;;;;;;;;5035077;28;20093;-60
2021/07/29 03:09:45;;;;;;;1.60;0.80;;;;;;;;;;5035083;28;20135;-60
2021/07/29 03:12:10;;;;;;;0.35;0.35;;;;;;;;;;5034811;28;20263;-60
2021/07/29 03:14:35;;;;;;;2.03;0.80;;;;;;;;;;5034675;28;20044;-60
2021/07/29 03:17:00;;;;;;;0.75;0.43;;;;;;;;;;5034703;28;20026;-60
2021/07/29 03:19:26;;;;;;;0.40;0.30;;;;;;;;;;5034729;28;20044;-60
2021/07/29 03:21:51;;;;;;;1.27;0.30;;;;;;;;;;5034643;28;20017;-61
2021/07/29 03:24:16;;;;;;;1.38;0.40;;;;;;;;;;5034718;28;20096;-60
2021/07/29 03:26:42;;;;;;;0.90;0.70;;;;;;;;;;5034446;28;20075;-61
2021/07/29 03:29:07;;;;;;;2.00;0.50;;;;;;;;;;5034451;28;20013;-60
2021/07/29 03:31:34;;;;;;;2.25;0.60;;;;;;;;;;5034700;28;20523;-60
2021/07/29 03:33:59;;;;;;;0.60;0.35;;;;;;;;;;5034579;28;20068;-60
2021/07/29 03:36:27;;;;;;;1.77;0.50;;;;;;;;;;5034542;28;20033;-60
2021/07/29 03:38:52;;;;;;;0.65;0.30;;;;;;;;;;5034411;28;20029;-60
2021/07/29 03:41:17;;;;;;;1.90;0.40;;;;;;;;;;5034274;28;20018;-60
2021/07/29 03:43:43;;;;;;;0.65;0.60;;;;;;;;;;5034275;28;20017;-60
2021/07/29 03:46:08;;;;;;;0.82;0.40;;;;;;;;;;5034127;28;20009;-60
2021/07/29 03:48:34;;;;;;;1.23;0.50;;;;;;;;;;5034146;28;20408;-60
2021/07/29 03:50:59;;;;;;;0.68;0.40;;;;;;;;;;5034169;28;20029;-60
2021/07/29 03:53:24;;;;;;;0.57;0.57;;;;;;;;;;5033616;28;20099;-60
2021/07/29 03:55:49;;;;;;;0.88;0.43;;;;;;;;;;5033300;28;20040;-60
2021/07/29 03:58:15;;;;;;;0.38;0.38;;;;;;;;;;5032834;28;20029;-61
2021/07/29 04:00:40;;;;;;;0.20;0.20;;;;;;;;;;5033811;28;20056;-58
2021/07/29 04:03:06;;;;;;;0.83;0.30;;;;;;;;;;5034085;28;20207;-58
2021/07/29 04:05:31;;;;;;;0.63;0.32;;;;;;;;;;5032737;28;20253;-58
2021/07/29 04:07:56;;;;;;;0.75;0.65;;;;;;;;;;5033839;28;20096;-59
2021/07/29 04:10:22;;;;;;;0.80;0.30;;;;;;;;;;5033745;28;20464;-58
2021/07/29 04:12:47;;;;;;;0.40;0.30;;;;;;;;;;5033595;28;20514;-59
2021/07/29 04:15:12;;;;;;;1.35;0.30;;;;;;;;;;5032727;28;20033;-58
2021/07/29 04:17:40;;;;;;;0.82;0.38;;;;;;;;;;5033608;28;20029;-59
2021/07/29 04:20:06;;;;;;;0.52;0.20;;;;;;;;;;5033521;28;20096;-59
2021/07/29 04:22:31;;;;;;;0.98;0.30;;;;;;;;;;5033341;28;20056;-58
2021/07/29 04:24:57;;;;;;;1.33;0.25;;;;;;;;;;5033646;28;20048;-58
2021/07/29 04:27:22;;;;;;;0.52;0.28;;;;;;;;;;5033154;28;20028;-59
2021/07/29 04:29:47;;;;;;;0.73;0.20;;;;;;;;;;5033441;28;20060;-58
2021/07/29 04:32:14;;;;;;;0.80;0.38;;;;;;;;;;5033090;28;20514;-59
2021/07/29 04:34:39;;;;;;;0.32;0.22;;;;;;;;;;5033501;28;20044;-58
2021/07/29 04:37:05;;;;;;;0.30;0.30;;;;;;;;;;5033376;28;20032;-59
2021/07/29 04:39:30;;;;;;;0.38;0.20;;;;;;;;;;5033351;28;20030;-58
2021/07/29 04:41:55;;;;;;;3.40;0.68;;;;;;;;;;5033424;28;20112;-59
2021/07/29 04:44:20;;;;;;;1.05;0.40;;;;;;;;;;5033234;28;20040;-58
2021/07/29 04:46:46;;;;;;;1.98;0.40;;;;;;;;;;5033175;28;20028;-58
2021/07/29 04:49:11;;;;;;;1.67;0.43;;;;;;;;;;5033068;28;20487;-58
2021/07/29 04:51:37;;;;;;;2.50;0.65;;;;;;;;;;5032955;28;20036;-59
2021/07/29 04:54:03;;;;;;;0.45;0.28;;;;;;;;;;5033154;28;20411;-59
2021/07/29 04:56:28;;;;;;;1.40;0.38;;;;;;;;;;5032882;28;20019;-59
2021/07/29 04:58:53;;;;;;;1.05;0.35;;;;;;;;;;5032846;28;20104;-58
2021/07/29 05:01:19;;;;;;;1.20;0.30;;;;;;;;;;5033050;28;20372;-59
2021/07/29 05:03:44;;;;;;;1.52;0.30;;;;;;;;;;5032912;28;20064;-59
2021/07/29 05:06:10;;;;;;;1.65;0.30;;;;;;;;;;5032008;28;20101;-59
2021/07/29 05:08:35;;;;;;;1.42;0.30;;;;;;;;;;5032458;28;20064;-59
2021/07/29 05:11:02;;;;;;;0.55;0.20;;;;;;;;;;5032955;28;20021;-58
2021/07/29 05:13:27;;;;;;;1.65;0.40;;;;;;;;;;5032964;28;20029;-60
2021/07/29 05:15:52;;;;;;;0.40;0.10;;;;;;;;;;5033558;28;20082;-59
2021/07/29 05:18:17;;;;;;;1.92;0.40;;;;;;;;;;5036756;28;20251;-59
2021/07/29 05:20:42;;;;;;;1.30;0.50;;;;;;;;;;5036958;28;20029;-58
2021/07/29 05:23:08;;;;;;;1.05;0.20;;;;;;;;;;5036754;28;20259;-59
2021/07/29 05:25:35;;;;;;;0.77;0.38;;;;;;;;;;5036940;28;20026;-59
2021/07/29 05:28:00;;;;;;;1.83;0.30;;;;;;;;;;5036396;28;20447;-59
2021/07/29 05:30:25;;;;;;;2.60;0.43;;;;;;;;;;5036487;28;20036;-59
2021/07/29 05:32:50;;;;;;;1.90;0.47;;;;;;;;;;5036469;28;20266;-59
2021/07/29 05:35:16;;;;;;;1.23;0.30;;;;;;;;;;5036932;28;20071;-59
2021/07/29 05:37:41;;;;;;;1.55;0.20;;;;;;;;;;5036511;28;20029;-59
2021/07/29 05:40:07;;;;;;;1.83;0.40;;;;;;;;;;5036252;28;20474;-59
2021/07/29 05:42:32;;;;;;;0.70;0.22;;;;;;;;;;5036457;28;20024;-59
2021/07/29 05:44:58;;;;;;;0.40;0.20;;;;;;;;;;5036497;28;20368;-59
2021/07/29 05:47:23;;;;;;;2.08;0.32;;;;;;;;;;5036149;28;20326;-59
2021/07/29 05:49:49;;;;;;;0.93;0.40;;;;;;;;;;5036538;28;20025;-58
2021/07/29 05:52:14;;;;;;;0.30;0.10;;;;;;;;;;5036240;28;20049;-59
2021/07/29 05:54:39;;;;;;;0.63;0.20;;;;;;;;;;5036461;28;20060;-59
2021/07/29 05:57:04;;;;;;;1.40;0.20;;;;;;;;;;5036313;28;20036;-59
2021/07/29 05:59:29;;;;;;;2.38;0.40;;;;;;;;;;5036081;28;20053;-58
2021/07/29 06:01:55;;;;;;;1.52;0.25;;;;;;;;;;5036144;28;20040;-59
2021/07/29 06:04:20;;;;;;;0.30;0.30;;;;;;;;;;5035863;28;20492;-59
2021/07/29 06:06:45;;;;;;;0.73;0.40;;;;;;;;;;5036121;28;20258;-58
2021/07/29 06:09:10;;;;;;;0.20;0.20;;;;;;;;;;5036060;28;20104;-58
2021/07/29 06:11:35;;;;;;;0.30;0.25;;;;;;;;;;5035955;28;20116;-58
2021/07/29 06:14:01;;;;;;;0.13;0.08;;;;;;;;;;5035959;28;20108;-58
2021/07/29 06:16:26;;;;;;;0.95;0.30;;;;;;;;;;5035818;28;20061;-58
2021/07/29 06:19:09;;;;;;;1.63;0.68;;;;;;;;;;5036108;28;20092;-59
2021/07/29 06:21:35;;;;;;;0.38;0.20;;;;;;;;;;5036109;28;20020;-58
2021/07/29 06:24:00;;;;;;;0.98;0.40;;;;;;;;;;5027314;28;20097;-58
2021/07/29 06:26:26;;;;;;;0.50;0.20;;;;;;;;;;5017307;28;20431;-58
2021/07/29 06:28:51;;;;;;;1.15;0.20;;;;;;;;;;5028825;28;20026;-58
2021/07/29 06:31:16;;;;;;;0.47;0.20;;;;;;;;;;5021118;28;20056;-58
2021/07/29 06:33:41;;;;;;;0.95;0.30;;;;;;;;;;5035925;28;20026;-59
2021/07/29 06:36:06;;;;;;;1.80;0.50;;;;;;;;;;5015870;28;20540;-58
2021/07/29 06:38:32;;;;;;;0.80;0.38;;;;;;;;;;5015914;28;20101;-58
2021/07/29 06:40:57;;;;;;;0.63;0.30;;;;;;;;;;5023583;28;20350;-58
2021/07/29 06:43:23;;;;;;;2.22;0.40;;;;;;;;;;5022931;28;20290;-58
2021/07/29 06:45:48;;;;;;;0.82;0.40;;;;;;;;;;5031314;28;20030;-58
2021/07/29 06:48:13;;;;;;;1.30;0.40;;;;;;;;;;5023728;28;20103;-58
2021/07/29 06:50:38;;;;;;;0.70;0.20;;;;;;;;;;5022605;28;20263;-58
2021/07/29 06:53:04;;;;;;;0.28;0.20;;;;;;;;;;5035210;28;20269;-58
2021/07/29 06:55:29;;;;;;;0.90;0.38;;;;;;;;;;5019339;28;20021;-59
2021/07/29 06:57:54;;;;;;;2.40;0.20;;;;;;;;;;5024576;28;20059;-58
2021/07/29 07:00:20;;;;;;;1.60;0.20;;;;;;;;;;5021458;28;20488;-59
2021/07/29 07:02:45;;;;;;;2.45;0.40;;;;;;;;;;5027909;28;20524;-59
2021/07/29 07:05:11;;;;;;;1.00;0.30;;;;;;;;;;5034534;28;20046;-59
2021/07/29 07:07:36;;;;;;;0.20;0.17;;;;;;;;;;5033172;28;20022;-58
2021/07/29 07:10:01;;;;;;;0.82;0.30;;;;;;;;;;5029445;28;20040;-59
2021/07/29 07:12:26;;;;;;;1.48;0.20;;;;;;;;;;5016985;28;20108;-58
2021/07/29 07:14:52;;;;;;;1.03;0.20;;;;;;;;;;5025057;28;20414;-59
2021/07/29 07:17:17;;;;;;;1.25;0.47;;;;;;;;;;5027719;28;20274;-58
2021/07/29 07:19:43;;;;;;;1.45;0.40;;;;;;;;;;5025937;28;20025;-59
2021/07/29 07:22:08;;;;;;;0.98;0.50;;;;;;;;;;5026656;28;20037;-58
2021/07/29 07:24:34;;;;;;;1.38;0.20;;;;;;;;;;5029509;28;20018;-58
2021/07/29 07:27:00;;;;;;;1.27;0.40;;;;;;;;;;5024282;28;20018;-58
2021/07/29 07:29:25;;;;;;;1.55;0.38;;;;;;;;;;5034375;28;20014;-59
2021/07/29 07:31:50;;;;;;;0.73;0.50;;;;;;;;;;5031912;28;20022;-58
2021/07/29 07:34:15;;;;;;;1.88;0.52;;;;;;;;;;5031787;28;20104;-58
2021/07/29 07:36:41;;;;;;;0.85;0.40;;;;;;;;;;5040556;28;20012;-58
2021/07/29 07:39:07;;;;;;;0.68;0.30;;;;;;;;;;5043440;28;20057;-58
2021/07/29 07:41:33;;;;;;;2.65;0.70;;;;;;;;;;5029542;28;20013;-58
2021/07/29 07:43:58;;;;;;;3.08;0.75;;;;;;;;;;5034148;28;20490;-58
2021/07/29 07:46:23;;;;;;;2.25;0.50;;;;;;;;;;5030088;28;20617;-59
2021/07/29 07:48:48;;;;;;;3.55;0.55;;;;;;;;;;5033477;28;20555;-58
2021/07/29 07:51:14;;;;;;;2.47;0.80;;;;;;;;;;5042989;28;20451;-59
2021/07/29 07:53:39;;;;;;;4.85;0.88;;;;;;;;;;5033847;28;20021;-58
2021/07/29 07:56:05;;;;;;;2.00;0.32;;;;;;;;;;5035853;28;20017;-59
2021/07/29 07:58:30;;;;;;;3.70;0.65;;;;;;;;;;5040417;28;20040;-58
2021/07/29 08:00:56;;;;;;;2.15;0.43;;;;;;;;;;5028975;28;20041;-58
2021/07/29 08:03:21;;;;;;;1.60;0.80;;;;;;;;;;5034766;28;20423;-58
2021/07/29 08:05:46;;;;;;;3.87;0.67;;;;;;;;;;5044832;28;20021;-58
2021/07/29 08:08:11;;;;;;;1.23;0.45;;;;;;;;;;5042584;28;20350;-58
2021/07/29 08:10:37;;;;;;;2.70;0.50;;;;;;;;;;5029977;28;20530;-58
2021/07/29 08:13:03;;;;;;;2.60;0.50;;;;;;;;;;5031536;28;20282;-58
2021/07/29 08:15:28;;;;;;;2.50;0.40;;;;;;;;;;5032685;28;20040;-58
2021/07/29 08:17:54;;;;;;;2.13;0.38;;;;;;;;;;5033261;28;20021;-58
2021/07/29 08:20:22;;;;;;;2.30;0.50;;;;;;;;;;5037121;28;20025;-58
2021/07/29 08:22:47;;;;;;;2.85;0.75;;;;;;;;;;5026281;28;20056;-58
2021/07/29 08:25:16;;;;;;;2.10;0.60;;;;;;;;;;5018868;28;20442;-58
2021/07/29 08:27:41;;;;;;;3.22;0.60;;;;;;;;;;5021947;28;20264;-58
2021/07/29 08:30:07;;;;;;;1.33;0.50;;;;;;;;;;5022161;28;20024;-58
2021/07/29 08:32:34;;;;;;;2.15;0.93;;;;;;;;;;5020256;28;20791;-58
2021/07/29 08:34:59;;;;;;;3.13;0.60;;;;;;;;;;5030486;28;20159;-58
2021/07/29 08:37:25;;;;;;;1.13;0.50;;;;;;;;;;5052858;28;20111;-58
2021/07/29 08:39:50;;;;;;;0.85;0.57;;;;;;;;;;5053104;28;20021;-58
2021/07/29 08:42:16;;;;;;;2.95;0.73;;;;;;;;;;5031473;28;20025;-58
2021/07/29 08:44:41;;;;;;;2.00;0.60;;;;;;;;;;5013454;28;20028;-57
2021/07/29 08:47:08;;;;;;;1.50;0.40;;;;;;;;;;5028026;28;20021;-58
2021/07/29 08:49:35;;;;;;;1.45;0.60;;;;;;;;;;5033264;28;20328;-58
2021/07/29 08:52:01;;;;;;;2.97;0.57;;;;;;;;;;5030690;28;20025;-58
2021/07/29 08:54:26;;;;;;;1.73;0.80;;;;;;;;;;5028446;28;20018;-59
2021/07/29 08:56:51;;;;;;;1.35;0.43;;;;;;;;;;5032156;28;20060;-58
2021/07/29 08:59:16;;;;;;;1.75;0.40;;;;;;;;;;5032362;28;20121;-58
2021/07/29 09:01:44;;;;;;;1.88;0.65;;;;;;;;;;5034447;28;20052;-58
2021/07/29 09:04:13;;;;;;;2.60;0.50;;;;;;;;;;5030563;28;20036;-58
2021/07/29 09:07:04;;;;;;;1.63;0.93;;;;;;;;;;5031787;28;20055;-58
2021/07/29 09:09:42;;;;;;;2.00;0.90;;;;;;;;;;5031796;28;20100;-58
2021/07/29 09:12:17;;;;;;;1.85;0.88;;;;;;;;;;5016176;28;20010;-58
2021/07/29 09:14:43;;;;;;;2.90;0.90;;;;;;;;;;5031948;28;20029;-59
2021/07/29 09:17:08;;;;;;;1.48;0.60;;;;;;;;;;5037116;28;20018;-58
2021/07/29 09:19:42;;;;;;;4.45;1.00;;;;;;;;;;5027511;28;20027;-59
2021/07/29 09:22:18;;;;;;;2.50;0.90;;;;;;;;;;5030651;28;20017;-59
2021/07/29 09:25:02;;;;;;;2.55;0.93;;;;;;;;;;5027705;28;20022;-58
2021/07/29 09:27:48;;;;;;;1.98;0.90;;;;;;;;;;5029871;28;20123;-59
2021/07/29 09:30:16;;;;;;;2.35;0.82;;;;;;;;;;5020795;28;20116;-59
2021/07/29 09:33:00;;;;;;;2.83;0.80;;;;;;;;;;5036411;28;20026;-59
2021/07/29 09:35:28;;;;;;;4.37;1.10;;;;;;;;;;5025660;28;20033;-59
2021/07/29 09:37:53;;;;;;;4.00;0.70;;;;;;;;;;5043013;28;20035;-58
2021/07/29 09:40:18;;;;;;;5.30;1.30;;;;;;;;;;5023905;28;20022;-59
2021/07/29 09:42:44;;;;;;;3.90;1.07;;;;;;;;;;5029421;28;20037;-59
2021/07/29 09:45:09;;;;;;;3.22;0.95;;;;;;;;;;5038677;28;20269;-58
2021/07/29 09:47:35;;;;;;;3.53;1.50;;;;;;;;;;5036494;28;20009;-59
2021/07/29 09:50:01;;;;;;;3.05;1.10;;;;;;;;;;5027646;28;20108;-59
2021/07/29 09:52:27;;;;;;;1.17;0.80;;;;;;;;;;5030820;28;20595;-59
2021/07/29 09:54:54;;;;;;;2.33;1.10;;;;;;;;;;5016721;28;20144;-58
2021/07/29 09:57:19;;;;;;;2.20;1.00;;;;;;;;;;5022482;28;20028;-58
2021/07/29 09:59:44;;;;;;;1.85;0.98;;;;;;;;;;5022261;28;20042;-58
2021/07/29 10:02:10;;;;;;;2.53;0.97;;;;;;;;;;5029533;28;20431;-58
2021/07/29 10:04:49;;;;;;;2.63;1.05;;;;;;;;;;5036037;28;20261;-58
2021/07/29 10:07:23;;;;;;;2.15;0.73;;;;;;;;;;5036026;28;20028;-58
2021/07/29 10:09:49;;;;;;;2.38;0.82;;;;;;;;;;5036325;28;20022;-58
2021/07/29 10:12:19;;;;;;;2.00;0.70;;;;;;;;;;5035821;28;20032;-58
2021/07/29 10:14:45;;;;;;;2.40;0.60;;;;;;;;;;5036027;28;20109;-59
2021/07/29 10:17:10;;;;;;;2.45;0.77;;;;;;;;;;5035898;28;20025;-59
2021/07/29 10:19:55;;;;;;;1.70;0.70;;;;;;;;;;5035886;28;20022;-59
2021/07/29 10:22:21;;;;;;;2.00;0.63;;;;;;;;;;5035796;28;20036;-58
2021/07/29 10:24:53;;;;;;;1.60;0.50;;;;;;;;;;5036098;28;20022;-58
2021/07/29 10:27:18;;;;;;;4.30;0.70;;;;;;;;;;5035125;28;20636;-59
2021/07/29 10:29:43;;;;;;;1.40;0.60;;;;;;;;;;5015777;28;20076;-59
2021/07/29 10:32:10;;;;;;;1.90;0.50;;;;;;;;;;5015709;28;20101;-59
2021/07/29 10:34:36;;;;;;;1.95;0.50;;;;;;;;;;5015820;28;20033;-59
2021/07/29 10:37:02;;;;;;;0.75;0.40;;;;;;;;;;5015903;28;20389;-60
2021/07/29 10:39:28;;;;;;;2.00;0.40;;;;;;;;;;5015754;28;20084;-59
2021/07/29 10:41:54;;;;;;;0.73;0.30;;;;;;;;;;5015950;28;20021;-59
2021/07/29 10:44:32;;;;;;;1.10;0.60;;;;;;;;;;5015500;28;20045;-59
2021/07/29 10:46:57;;;;;;;1.83;0.20;;;;;;;;;;5022663;28;20026;-59
2021/07/29 10:49:22;;;;;;;0.82;0.40;;;;;;;;;;5032777;28;20021;-59
2021/07/29 10:52:14;;;;;;;3.17;0.40;;;;;;;;;;5033064;28;20022;-59
2021/07/29 10:54:40;;;;;;;0.68;0.40;;;;;;;;;;5032802;28;20038;-59
2021/07/29 10:57:06;;;;;;;1.50;0.55;;;;;;;;;;5031257;28;20021;-59
2021/07/29 10:59:32;;;;;;;1.33;0.40;;;;;;;;;;5027243;28;20030;-59
2021/07/29 11:02:00;;;;;;;2.80;0.75;;;;;;;;;;5033000;28;20432;-59
2021/07/29 11:04:28;;;;;;;1.30;0.40;;;;;;;;;;5030444;28;20017;-60
2021/07/29 11:07:00;;;;;;;0.75;0.20;;;;;;;;;;5030114;28;20045;-59
2021/07/29 11:09:30;;;;;;;1.00;0.40;;;;;;;;;;5043009;28;20485;-59
2021/07/29 11:11:56;;;;;;;1.05;0.40;;;;;;;;;;5053456;28;20020;-59
2021/07/29 11:14:25;;;;;;;1.45;0.77;;;;;;;;;;5032565;28;20022;-59
2021/07/29 11:16:51;;;;;;;1.75;0.57;;;;;;;;;;5027717;28;20112;-59
2021/07/29 11:19:16;;;;;;;1.23;0.55;;;;;;;;;;5032040;28;20104;-59
2021/07/29 11:21:42;;;;;;;1.77;0.73;;;;;;;;;;5028499;28;20033;-59
2021/07/29 11:24:22;;;;;;;1.13;0.50;;;;;;;;;;5049533;28;20025;-61
2021/07/29 11:26:47;;;;;;;0.60;0.35;;;;;;;;;;5047186;28;20017;-59
2021/07/29 11:29:13;;;;;;;1.20;0.50;;;;;;;;;;5043251;28;20034;-59
2021/07/29 11:31:39;;;;;;;2.33;0.70;;;;;;;;;;5037178;28;20269;-59
2021/07/29 11:34:05;;;;;;;0.82;0.50;;;;;;;;;;5030249;28;20025;-59
2021/07/29 11:36:31;;;;;;;1.73;0.40;;;;;;;;;;5031927;28;20068;-59
2021/07/29 11:39:01;;;;;;;1.45;0.32;;;;;;;;;;5027462;28;20112;-60
2021/07/29 11:41:27;;;;;;;4.47;0.88;;;;;;;;;;5028638;28;20422;-60
2021/07/29 11:43:54;;;;;;;3.22;0.43;;;;;;;;;;5030289;28;20104;-60
2021/07/29 11:46:19;;;;;;;2.50;0.50;;;;;;;;;;5039262;28;20063;-61
2021/07/29 11:48:44;;;;;;;4.23;0.60;;;;;;;;;;5032992;28;20399;-60
2021/07/29 11:51:13;;;;;;;3.00;0.50;;;;;;;;;;5028108;28;20361;-60
2021/07/29 11:53:39;;;;;;;0.98;0.45;;;;;;;;;;5045442;28;20017;-58
2021/07/29 11:56:05;;;;;;;1.20;0.52;;;;;;;;;;5035434;28;20040;-58
2021/07/29 11:58:31;;;;;;;2.05;0.80;;;;;;;;;;5033023;28;20028;-59
2021/07/29 12:00:56;;;;;;;0.82;0.30;;;;;;;;;;5029581;28;20407;-59
2021/07/29 12:03:26;;;;;;;1.95;0.73;;;;;;;;;;5032177;28;20551;-59
2021/07/29 12:05:52;;;;;;;1.55;0.30;;;;;;;;;;5033622;28;20405;-60
2021/07/29 12:08:17;;;;;;;1.58;0.40;;;;;;;;;;5033206;28;20037;-59
2021/07/29 12:10:43;;;;;;;1.00;0.38;;;;;;;;;;5033750;28;20061;-59
2021/07/29 12:13:08;;;;;;;2.15;0.70;;;;;;;;;;5032883;28;20014;-59
2021/07/29 12:15:34;;;;;;;0.88;0.38;;;;;;;;;;5036427;28;20016;-61
2021/07/29 12:18:13;;;;;;;0.68;0.50;;;;;;;;;;5034750;28;20025;-58
2021/07/29 12:20:41;;;;;;;1.88;0.20;;;;;;;;;;5031899;28;20056;-60
2021/07/29 12:23:11;;;;;;;0.95;0.40;;;;;;;;;;5042374;28;20295;-61
2021/07/29 12:25:36;;;;;;;1.45;0.35;;;;;;;;;;5043846;28;20080;-63
2021/07/29 12:28:01;;;;;;;1.63;0.60;;;;;;;;;;5044254;28;20109;-62
2021/07/29 12:30:35;;;;;;;1.40;0.30;;;;;;;;;;5024622;28;20025;-65
2021/07/29 12:33:26;;;;;;;2.35;0.30;;;;;;;;;;5035269;28;20101;-65
2021/07/29 12:36:04;;;;;;;1.63;0.65;;;;;;;;;;5023784;28;20052;-63
2021/07/29 12:38:29;;;;;;;1.15;0.45;;;;;;;;;;5033854;28;20044;-65
2021/07/29 12:40:54;;;;;;;2.90;0.50;;;;;;;;;;5028908;28;20060;-63
2021/07/29 12:43:21;;;;;;;1.43;0.60;;;;;;;;;;5021556;28;20040;-62
2021/07/29 12:45:47;;;;;;;3.80;0.52;;;;;;;;;;5017832;28;20271;-65
2021/07/29 12:48:12;;;;;;;3.40;0.50;;;;;;;;;;5027840;28;20033;-64
2021/07/29 12:50:38;;;;;;;0.80;0.30;;;;;;;;;;5031969;28;20029;-64
2021/07/29 12:53:07;;;;;;;1.95;0.60;;;;;;;;;;5031084;28;20037;-66
2021/07/29 12:55:39;;;;;;;3.58;0.68;;;;;;;;;;5027737;28;20022;-62
2021/07/29 12:58:06;;;;;;;3.03;0.43;;;;;;;;;;5021547;28;20033;-66
2021/07/29 13:00:31;;;;;;;4.40;0.32;;;;;;;;;;5024761;28;20108;-60
2021/07/29 13:02:57;;;;;;;0.60;0.40;;;;;;;;;;5033194;28;20484;-61
2021/07/29 13:05:22;;;;;;;1.90;0.47;;;;;;;;;;5033117;28;20018;-60
2021/07/29 13:07:48;;;;;;;1.88;0.43;;;;;;;;;;5021820;28;20055;-61
2021/07/29 13:10:13;;;;;;;0.90;0.30;;;;;;;;;;5016356;28;20021;-60
2021/07/29 13:12:40;;;;;;;1.55;0.50;;;;;;;;;;5027712;28;20474;-62
2021/07/29 13:15:05;;;;;;;3.53;0.45;;;;;;;;;;5027447;28;20058;-66
2021/07/29 13:17:31;;;;;;;0.82;0.30;;;;;;;;;;5023664;28;20057;-64
2021/07/29 13:19:59;;;;;;;2.38;0.43;;;;;;;;;;5026873;28;20028;-63
2021/07/29 13:22:25;;;;;;;1.63;0.38;;;;;;;;;;5022158;28;20024;-60
2021/07/29 13:24:54;;;;;;;2.78;0.57;;;;;;;;;;5025235;28;20367;-60
2021/07/29 13:27:20;;;;;;;0.98;0.52;;;;;;;;;;5030311;28;20026;-61
2021/07/29 13:29:45;;;;;;;0.82;0.30;;;;;;;;;;5018817;28;20088;-60
2021/07/29 13:32:12;;;;;;;0.88;0.30;;;;;;;;;;5023809;28;20014;-60
2021/07/29 13:34:37;;;;;;;4.22;0.60;;;;;;;;;;5028622;28;20036;-60
2021/07/29 13:37:02;;;;;;;2.53;0.30;;;;;;;;;;5024081;28;20057;-60
2021/07/29 13:39:27;;;;;;;0.57;0.38;;;;;;;;;;5056506;28;20013;-60
2021/07/29 13:41:53;;;;;;;1.90;0.60;;;;;;;;;;5033162;28;20518;-61
2021/07/29 13:44:21;;;;;;;1.08;0.30;;;;;;;;;;5036307;28;20018;-60
2021/07/29 13:46:47;;;;;;;0.50;0.30;;;;;;;;;;5036655;28;20052;-61
2021/07/29 13:49:12;;;;;;;2.58;0.52;;;;;;;;;;5034971;28;20057;-62
2021/07/29 13:51:38;;;;;;;0.30;0.20;;;;;;;;;;5036624;28;20116;-61
2021/07/29 13:54:03;;;;;;;0.82;0.35;;;;;;;;;;5037808;28;20267;-60
2021/07/29 13:56:28;;;;;;;0.60;0.30;;;;;;;;;;5046128;28;20100;-60
2021/07/29 13:58:53;;;;;;;1.45;0.52;;;;;;;;;;5036333;28;20718;-61
2021/07/29 14:01:18;;;;;;;0.70;0.27;;;;;;;;;;5035958;28;20072;-60
2021/07/29 14:03:44;;;;;;;1.65;0.40;;;;;;;;;;5036298;28;20266;-60
2021/07/29 14:06:09;;;;;;;0.40;0.30;;;;;;;;;;5035039;28;20017;-60
2021/07/29 14:08:34;;;;;;;1.15;0.30;;;;;;;;;;5026241;28;20259;-61
2021/07/29 14:10:59;;;;;;;0.40;0.20;;;;;;;;;;5034960;28;20061;-62
2021/07/29 14:13:25;;;;;;;1.02;0.50;;;;;;;;;;5036158;28;20039;-61
2021/07/29 14:15:50;;;;;;;0.93;0.38;;;;;;;;;;5035991;28;20457;-60
2021/07/29 14:18:17;;;;;;;1.52;0.20;;;;;;;;;;5035950;28;20025;-60
2021/07/29 14:20:46;;;;;;;0.50;0.25;;;;;;;;;;5034459;28;20536;-61
2021/07/29 14:23:13;;;;;;;2.35;0.52;;;;;;;;;;5024152;28;20022;-60
2021/07/29 14:25:39;;;;;;;0.55;0.20;;;;;;;;;;5017491;28;20100;-60
2021/07/29 14:28:08;;;;;;;0.70;0.40;;;;;;;;;;5030953;28;20128;-60
2021/07/29 14:30:35;;;;;;;1.08;0.52;;;;;;;;;;5035050;28;20021;-61
2021/07/29 14:33:00;;;;;;;0.75;0.10;;;;;;;;;;5019226;28;20026;-60
2021/07/29 14:35:26;;;;;;;1.27;0.50;;;;;;;;;;5014783;28;20032;-61
2021/07/29 14:37:51;;;;;;;0.77;0.20;;;;;;;;;;5014745;28;20092;-61